createdAt,value
2023-11-08T00:02:03.324Z,13.40
2023-11-08T00:07:06.354Z,13.32
2023-11-08T00:12:09.706Z,13.13
2023-11-08T00:17:15.238Z,13.45
2023-11-08T00:22:18.712Z,14.17
2023-11-08T00:27:21.542Z,14.39
2023-11-08T00:32:24.298Z,14.54
2023-11-08T00:37:26.998Z,14.49
2023-11-08T00:42:29.729Z,14.80
2023-11-08T00:47:33.271Z,15.14
2023-11-08T00:52:38.083Z,15.35
2023-11-08T00:57:40.984Z,16.05
2023-11-08T01:02:44.809Z,16.25
2023-11-08T01:07:48.113Z,16.26
2023-11-08T01:12:51.523Z,16.41
2023-11-08T01:17:56.935Z,16.40
2023-11-08T01:22:59.716Z,16.41
2023-11-08T01:28:02.424Z,16.26
2023-11-08T01:33:05.323Z,15.68
2023-11-08T01:38:08.158Z,15.20
2023-11-08T01:43:34.952Z,14.54
2023-11-08T01:48:40.744Z,14.04
2023-11-08T01:53:44.568Z,13.72
2023-11-08T01:58:48.741Z,13.63
2023-11-08T02:03:55.777Z,13.73
2023-11-08T02:08:58.658Z,13.42
2023-11-08T02:14:02.705Z,13.16
2023-11-08T02:19:06.664Z,13.28
2023-11-08T02:24:22.390Z,13.51
2023-11-08T02:29:25.254Z,13.92
2023-11-08T02:34:28.000Z,14.16
2023-11-08T02:39:30.710Z,13.78
2023-11-08T02:44:34.232Z,13.84
2023-11-08T02:49:37.773Z,14.65
2023-11-08T02:54:40.661Z,14.94
2023-11-08T02:59:43.542Z,14.61
2023-11-08T03:04:46.404Z,14.26
2023-11-08T03:09:49.461Z,13.90
2023-11-08T03:14:52.985Z,13.58
2023-11-08T03:19:56.368Z,13.48
2023-11-08T03:24:59.065Z,13.26
2023-11-08T03:30:02.020Z,13.07
2023-11-08T03:35:06.526Z,13.05
2023-11-08T03:40:13.489Z,12.91
2023-11-08T03:45:16.732Z,12.82
2023-11-08T03:50:19.665Z,13.08
2023-11-08T03:55:22.407Z,13.91
2023-11-08T04:00:26.937Z,14.06
2023-11-08T04:05:31.859Z,13.38
2023-11-08T04:10:35.162Z,12.82
2023-11-08T04:15:38.444Z,14.21
2023-11-08T04:20:43.972Z,15.17
2023-11-08T04:25:50.689Z,15.55
2023-11-08T04:30:53.503Z,16.04
2023-11-08T04:35:56.472Z,16.25
2023-11-08T04:40:59.127Z,15.95
2023-11-08T04:46:01.866Z,15.72
2023-11-08T04:51:05.480Z,16.03
2023-11-08T04:56:08.183Z,15.96
2023-11-08T05:01:10.966Z,16.11
2023-11-08T05:06:13.830Z,16.05
2023-11-08T05:11:16.497Z,15.36
2023-11-08T05:16:23.118Z,15.63
2023-11-08T05:21:27.843Z,15.33
2023-11-08T05:26:30.742Z,14.72
2023-11-08T05:31:35.292Z,14.36
2023-11-08T05:36:38.499Z,14.66
2023-11-08T05:41:41.356Z,14.15
2023-11-08T05:46:44.221Z,13.27
2023-11-08T05:51:47.099Z,12.87
2023-11-08T05:56:49.892Z,13.49
2023-11-08T06:01:52.764Z,14.46
2023-11-08T06:06:56.290Z,14.85
2023-11-08T06:11:59.112Z,14.77
2023-11-08T06:17:02.933Z,14.53
2023-11-08T06:22:05.660Z,14.82
2023-11-08T06:27:08.726Z,15.26
2023-11-08T06:32:11.514Z,14.99
2023-11-08T06:37:15.021Z,15.32
2023-11-08T06:42:17.817Z,15.55
2023-11-08T06:47:20.482Z,15.31
2023-11-08T06:52:23.163Z,15.21
2023-11-08T06:57:25.880Z,15.89
2023-11-08T07:02:29.781Z,16.43
2023-11-08T07:07:34.559Z,16.33
2023-11-08T07:12:37.368Z,16.09
2023-11-08T07:17:40.352Z,16.00
2023-11-08T07:22:45.985Z,15.61
2023-11-08T07:27:48.841Z,15.58
2023-11-08T07:32:53.664Z,15.26
2023-11-08T07:37:56.641Z,15.10
2023-11-08T07:42:59.784Z,14.87
2023-11-08T07:48:04.473Z,14.47
2023-11-08T07:53:07.269Z,14.35
2023-11-08T07:58:09.997Z,14.56
2023-11-08T08:03:15.722Z,14.68
2023-11-08T08:08:18.877Z,14.46
2023-11-08T08:13:30.897Z,14.24
2023-11-08T08:18:37.636Z,14.06
2023-11-08T08:23:44.540Z,13.93
2023-11-08T08:28:52.591Z,13.71
2023-11-08T08:33:58.279Z,14.65
2023-11-08T08:39:01.183Z,14.82
2023-11-08T08:44:06.648Z,14.99
2023-11-08T08:49:09.370Z,14.89
2023-11-08T08:54:12.246Z,15.46
2023-11-08T08:59:15.011Z,15.70
2023-11-08T09:04:17.937Z,15.75
2023-11-08T09:09:20.816Z,15.61
2023-11-08T09:14:23.922Z,15.69
2023-11-08T09:19:27.960Z,15.68
2023-11-08T09:24:30.778Z,15.68
2023-11-08T09:29:37.495Z,15.82
2023-11-08T09:34:40.525Z,15.87
2023-11-08T09:39:47.818Z,15.96
2023-11-08T09:44:51.032Z,16.06
2023-11-08T09:49:56.900Z,16.07
2023-11-08T09:55:00.506Z,16.30
2023-11-08T10:00:05.015Z,16.60
2023-11-08T10:05:08.668Z,15.96
2023-11-08T10:10:12.091Z,15.35
2023-11-08T10:15:23.004Z,15.03
2023-11-08T10:20:31.974Z,14.97
2023-11-08T10:25:36.350Z,14.97
2023-11-08T10:30:42.655Z,15.04
2023-11-08T10:35:46.772Z,14.98
2023-11-08T10:40:50.231Z,15.12
2023-11-08T10:45:53.005Z,15.36
2023-11-08T10:50:56.280Z,15.38
2023-11-08T10:56:03.099Z,15.28
2023-11-08T11:01:07.476Z,15.17
2023-11-08T11:06:12.631Z,14.62
2023-11-08T11:11:16.500Z,14.27
2023-11-08T11:16:34.265Z,14.30
2023-11-08T11:21:50.453Z,14.56
2023-11-08T11:26:53.186Z,14.51
2023-11-08T11:31:56.899Z,14.46
2023-11-08T11:37:03.593Z,14.19
2023-11-08T11:42:13.723Z,14.00
2023-11-08T11:47:23.275Z,13.84
2023-11-08T11:52:26.601Z,13.64
2023-11-08T11:57:31.079Z,13.47
2023-11-08T12:02:34.549Z,13.45
2023-11-08T12:07:39.475Z,13.57
2023-11-08T12:12:45.179Z,13.37
2023-11-08T12:17:51.015Z,13.33
2023-11-08T12:22:54.841Z,13.34
2023-11-08T12:27:58.384Z,13.36
2023-11-08T12:33:01.529Z,13.31
2023-11-08T12:38:04.553Z,13.24
2023-11-08T12:43:56.881Z,13.23
2023-11-08T12:48:41.330Z,13.31
2023-11-08T12:53:48.329Z,13.31
2023-11-08T12:58:51.298Z,13.26
2023-11-08T13:03:54.061Z,13.18
2023-11-08T13:08:56.995Z,13.11
2023-11-08T13:14:00.028Z,13.17
2023-11-08T13:19:04.998Z,13.11
2023-11-08T13:24:08.557Z,12.98
2023-11-08T13:29:11.764Z,12.97
2023-11-08T13:34:14.757Z,12.98
2023-11-08T13:39:17.546Z,13.00
2023-11-08T13:44:20.422Z,12.95
2023-11-08T13:49:23.813Z,12.81
2023-11-08T13:54:26.686Z,12.81
2023-11-08T13:59:29.368Z,12.77
2023-11-08T14:04:32.166Z,12.77
2023-11-08T14:09:36.685Z,12.72
2023-11-08T14:14:39.463Z,12.70
2023-11-08T14:19:42.302Z,12.68
2023-11-08T14:24:45.509Z,12.50
2023-11-08T14:29:52.582Z,12.26
2023-11-08T14:36:30.934Z,12.13
2023-11-08T14:43:23.982Z,12.09
2023-11-08T14:48:42.653Z,12.03
2023-11-08T15:01:20.575Z,11.86
2023-11-08T15:06:25.826Z,11.78
2023-11-08T15:11:28.819Z,11.73
2023-11-08T15:16:31.683Z,11.71
2023-11-08T15:21:34.447Z,11.71
2023-11-08T15:26:37.666Z,11.67
2023-11-08T15:31:40.450Z,11.67
2023-11-08T15:36:43.278Z,11.63
2023-11-08T15:41:47.521Z,11.63
2023-11-08T15:46:50.352Z,11.65
2023-11-08T15:51:53.333Z,11.62
2023-11-08T15:56:56.325Z,11.57
2023-11-08T16:02:00.309Z,11.51
2023-11-08T16:07:03.859Z,11.42
2023-11-08T16:12:06.913Z,11.37
2023-11-08T16:17:10.083Z,11.32
2023-11-08T16:22:14.768Z,11.30
2023-11-08T16:27:17.705Z,11.23
2023-11-08T16:32:35.494Z,11.21
2023-11-08T16:37:44.108Z,11.32
2023-11-08T16:42:47.051Z,11.32
2023-11-08T16:47:51.456Z,11.26
2023-11-08T16:52:54.188Z,11.23
2023-11-08T16:57:57.049Z,11.22
2023-11-08T17:02:59.866Z,11.17
2023-11-08T17:08:06.067Z,11.10
2023-11-08T17:13:10.907Z,11.13
2023-11-08T17:18:14.387Z,11.19
2023-11-08T17:23:17.312Z,11.19
2023-11-08T17:28:20.529Z,11.15
2023-11-08T17:33:23.343Z,11.17
2023-11-08T17:38:26.050Z,11.17
2023-11-08T17:43:30.005Z,11.14
2023-11-08T17:48:32.759Z,11.10
2023-11-08T17:53:35.580Z,11.11
2023-11-08T17:58:39.508Z,11.11
2023-11-08T18:03:42.529Z,11.16
2023-11-08T18:08:46.365Z,11.12
2023-11-08T18:13:50.096Z,11.10
2023-11-08T18:18:52.951Z,11.03
2023-11-08T18:23:56.249Z,10.99
2023-11-08T18:28:59.212Z,11.01
2023-11-08T18:34:02.605Z,11.00
2023-11-08T18:39:06.094Z,10.93
2023-11-08T18:44:09.185Z,10.94
2023-11-08T18:49:12.012Z,10.95
2023-11-08T18:54:15.164Z,10.92
2023-11-08T18:59:19.581Z,10.92
2023-11-08T19:04:23.412Z,10.95
2023-11-08T19:09:26.315Z,10.98
2023-11-08T19:14:29.496Z,10.95
2023-11-08T19:19:32.628Z,10.99
2023-11-08T19:24:35.601Z,10.97
2023-11-08T19:29:38.364Z,10.94
2023-11-08T19:34:41.068Z,10.99
2023-11-08T19:39:44.058Z,11.00
2023-11-08T19:44:48.867Z,11.00
2023-11-08T19:49:51.623Z,11.00
2023-11-08T19:54:54.401Z,11.01
2023-11-08T19:59:57.228Z,10.98
2023-11-08T20:05:00.316Z,11.03
2023-11-08T20:10:04.426Z,11.07
2023-11-08T20:15:08.306Z,11.02
2023-11-08T20:20:12.677Z,10.97
2023-11-08T20:25:15.663Z,10.93
2023-11-08T20:30:18.629Z,10.88
2023-11-08T20:35:21.619Z,10.90
2023-11-08T20:40:24.429Z,10.94
2023-11-08T20:45:27.229Z,10.90
2023-11-08T20:50:30.007Z,10.91
2023-11-08T20:55:34.069Z,10.94
2023-11-08T21:00:37.253Z,10.98
2023-11-08T21:05:40.831Z,10.96
2023-11-08T21:10:43.866Z,10.99
2023-11-08T21:15:49.140Z,10.99
2023-11-08T21:20:51.993Z,10.99
2023-11-08T21:25:54.867Z,10.97
2023-11-08T21:30:57.723Z,11.00
2023-11-08T21:36:04.196Z,11.01
2023-11-08T21:41:07.100Z,11.01
2023-11-08T21:46:10.236Z,10.98
2023-11-08T21:51:13.474Z,10.97
2023-11-08T21:56:18.486Z,10.98
2023-11-08T22:01:25.419Z,10.93
2023-11-08T22:06:28.282Z,10.92
2023-11-08T22:11:31.077Z,10.89
2023-11-08T22:16:33.932Z,10.88
2023-11-08T22:21:43.554Z,10.93
2023-11-08T22:26:46.470Z,10.95
2023-11-08T22:31:49.332Z,10.96
2023-11-08T22:36:52.268Z,10.90
2023-11-08T22:41:55.006Z,10.83
2023-11-08T22:46:57.688Z,10.81
2023-11-08T22:52:00.510Z,10.78
2023-11-08T22:57:03.695Z,10.80
2023-11-08T23:02:06.705Z,10.81
2023-11-08T23:07:10.200Z,10.73
2023-11-08T23:12:12.947Z,10.66
2023-11-08T23:17:16.216Z,10.69
2023-11-08T23:22:19.457Z,10.68
2023-11-08T23:27:22.396Z,10.65
2023-11-08T23:32:26.763Z,10.61
2023-11-08T23:37:29.801Z,10.60
2023-11-08T23:42:32.543Z,10.64
2023-11-08T23:47:35.560Z,10.66
2023-11-08T23:52:38.873Z,10.67
2023-11-08T23:57:41.812Z,10.65
